createdAt,value
2022-09-14T00:04:45.098Z,99387.03
2022-09-14T00:09:52.636Z,99369.56
2022-09-14T00:15:20.965Z,99348.28
2022-09-14T00:20:22.702Z,99363.78
2022-09-14T00:25:27.648Z,99347.97
2022-09-14T00:30:29.445Z,99336.06
2022-09-14T00:35:31.133Z,99332.47
2022-09-14T00:40:32.887Z,99346.84
2022-09-14T00:45:45.117Z,99322.41
2022-09-14T00:51:03.134Z,99311.09
2022-09-14T00:56:05.029Z,99316.34
2022-09-14T01:01:10.539Z,99306.06
2022-09-14T01:06:21.315Z,99322.31
2022-09-14T01:11:43.219Z,99377.19
2022-09-14T01:17:29.600Z,99385.91
2022-09-14T01:22:40.207Z,99404.69
2022-09-14T01:27:46.664Z,99438.16
2022-09-14T01:32:58.071Z,99452.56
2022-09-14T01:44:38.659Z,99433.34
2022-09-14T01:49:55.662Z,99422.78
2022-09-14T01:55:04.326Z,99421.44
2022-09-14T02:00:10.943Z,99409.31
2022-09-14T02:05:26.668Z,99407.41
2022-09-14T02:10:29.330Z,99405.78
2022-09-14T02:15:31.136Z,99417.16
2022-09-14T02:20:39.300Z,99400.00
2022-09-14T02:25:41.199Z,99356.78
2022-09-14T02:31:19.882Z,99322.03
2022-09-14T02:36:48.720Z,99322.38
2022-09-14T02:41:58.553Z,99306.69
2022-09-14T02:47:28.296Z,99317.16
2022-09-14T02:52:55.160Z,99319.97
2022-09-14T02:58:11.716Z,99314.81
2022-09-14T03:03:18.264Z,99301.72
2022-09-14T03:08:19.793Z,99297.78
2022-09-14T03:13:27.103Z,99251.19
2022-09-14T03:18:28.619Z,99247.84
2022-09-14T03:23:30.429Z,99255.00
2022-09-14T03:28:31.989Z,99253.06
2022-09-14T03:33:39.496Z,99240.94
2022-09-14T03:38:48.760Z,99233.78
2022-09-14T03:43:51.705Z,99243.63
2022-09-14T03:48:55.892Z,99265.63
2022-09-14T03:53:57.473Z,99317.97
2022-09-14T03:58:59.017Z,99338.09
2022-09-14T04:04:00.679Z,99334.88
2022-09-14T04:09:02.588Z,99332.69
2022-09-14T04:14:05.284Z,99341.75
2022-09-14T04:19:07.221Z,99324.78
2022-09-14T04:24:15.560Z,99326.03
2022-09-14T04:29:17.808Z,99322.59
2022-09-14T04:34:19.333Z,99325.31
2022-09-14T04:39:21.094Z,99329.94
2022-09-14T04:44:22.620Z,99324.03
2022-09-14T04:49:27.182Z,99320.13
2022-09-14T04:54:45.137Z,99322.28
2022-09-14T04:59:46.654Z,99344.72
2022-09-14T05:04:51.214Z,99353.88
2022-09-14T05:09:52.727Z,99358.78
2022-09-14T05:14:54.337Z,99358.19
2022-09-14T05:19:55.877Z,99369.19
2022-09-14T05:24:57.403Z,99368.09
2022-09-14T05:29:58.923Z,99357.75
2022-09-14T05:35:00.543Z,99363.81
2022-09-14T05:40:02.269Z,99362.69
2022-09-14T05:45:04.481Z,99370.13
2022-09-14T05:50:08.439Z,99351.16
2022-09-14T05:55:09.966Z,99344.59
2022-09-14T06:00:12.108Z,99353.41
2022-09-14T06:05:22.255Z,99355.59
2022-09-14T06:10:23.855Z,99362.25
2022-09-14T06:15:25.491Z,99356.69
2022-09-14T06:20:27.089Z,99369.06
2022-09-14T06:25:28.665Z,99367.25
2022-09-14T06:30:33.192Z,99359.84
2022-09-14T06:35:34.739Z,99363.66
2022-09-14T06:40:36.454Z,99371.19
2022-09-14T06:45:38.020Z,99373.72
2022-09-14T06:50:39.540Z,99372.97
2022-09-14T06:55:41.419Z,99388.09
2022-09-14T07:00:43.184Z,99382.59
2022-09-14T07:05:44.724Z,99377.84
2022-09-14T07:10:55.898Z,99384.25
2022-09-14T07:15:57.805Z,99384.78
2022-09-14T07:21:11.287Z,99392.22
2022-09-14T07:26:18.530Z,99399.72
2022-09-14T07:31:33.301Z,99407.81
2022-09-14T07:36:36.536Z,99423.16
2022-09-14T07:41:39.620Z,99434.53
2022-09-14T07:46:43.320Z,99439.00
2022-09-14T07:51:45.811Z,99446.81
2022-09-14T07:56:49.295Z,99481.03
2022-09-14T08:01:51.184Z,99487.78
2022-09-14T08:06:52.812Z,99511.09
2022-09-14T08:12:04.401Z,99524.22
2022-09-14T08:17:05.926Z,99501.47
2022-09-14T08:22:07.437Z,99499.50
2022-09-14T08:27:12.227Z,99492.31
2022-09-14T08:32:13.967Z,99475.09
2022-09-14T08:37:15.470Z,99469.16
2022-09-14T08:42:19.305Z,99442.13
2022-09-14T08:47:32.270Z,99463.38
2022-09-14T08:52:38.544Z,99447.34
2022-09-14T08:57:44.021Z,99405.28
2022-09-14T09:03:19.686Z,99386.41
2022-09-14T09:08:39.814Z,99376.22
2022-09-14T09:13:43.005Z,99389.00
2022-09-14T09:18:49.062Z,99375.88
2022-09-14T09:23:51.001Z,99384.53
2022-09-14T09:28:54.839Z,99374.63
2022-09-14T09:33:56.433Z,99369.13
2022-09-14T09:39:04.284Z,99369.16
2022-09-14T09:44:11.142Z,99356.34
2022-09-14T09:49:42.512Z,99347.31
2022-09-14T09:54:51.040Z,99328.47
2022-09-14T10:00:10.819Z,99332.34
2022-09-14T10:05:13.701Z,99312.06
2022-09-14T10:10:19.308Z,99306.97
2022-09-14T10:15:34.944Z,99294.00
2022-09-14T10:20:41.308Z,99281.31
2022-09-14T10:25:42.968Z,99264.53
2022-09-14T10:30:51.108Z,99246.75
2022-09-14T10:36:14.767Z,99232.34
2022-09-14T10:41:39.204Z,99238.16
2022-09-14T10:47:21.787Z,99236.75
2022-09-14T10:52:40.408Z,99232.66
2022-09-14T10:58:01.961Z,99229.88
2022-09-14T11:03:24.545Z,99229.31
2022-09-14T11:08:40.799Z,99242.72
2022-09-14T11:14:02.204Z,99249.00
2022-09-14T11:19:22.812Z,99241.19
2022-09-14T11:24:46.365Z,99236.03
2022-09-14T11:29:53.810Z,99233.03
2022-09-14T11:35:02.195Z,99233.28
2022-09-14T11:40:15.045Z,99234.97
2022-09-14T11:45:23.691Z,99224.66
2022-09-14T11:50:31.562Z,99206.94
2022-09-14T11:55:34.028Z,99212.44
2022-09-14T12:01:03.678Z,99224.25
2022-09-14T12:06:30.751Z,99222.19
2022-09-14T12:11:36.074Z,99213.00
2022-09-14T12:17:22.803Z,99234.41
2022-09-14T12:22:32.783Z,99264.03
2022-09-14T12:27:37.950Z,99302.03
2022-09-14T12:32:42.730Z,99323.53
2022-09-14T12:37:46.735Z,99370.16
2022-09-14T12:42:48.284Z,99387.59
2022-09-14T12:47:50.987Z,99381.84
2022-09-14T12:53:18.214Z,99390.84
2022-09-14T12:58:41.923Z,99343.19
2022-09-14T13:03:50.826Z,99335.50
2022-09-14T13:08:58.833Z,99332.94
2022-09-14T13:14:01.821Z,99316.47
2022-09-14T13:19:08.996Z,99316.59
2022-09-14T13:24:28.153Z,99309.50
2022-09-14T13:29:31.110Z,99320.88
2022-09-14T13:34:37.063Z,99313.88
2022-09-14T13:39:50.668Z,99327.84
2022-09-14T13:44:53.023Z,99338.97
2022-09-14T13:49:55.365Z,99344.72
2022-09-14T13:55:38.656Z,99339.47
2022-09-14T14:00:53.902Z,99340.78
2022-09-14T14:05:55.743Z,99342.88
2022-09-14T14:10:58.380Z,99349.25
2022-09-14T14:16:20.405Z,99341.03
2022-09-14T14:21:21.983Z,99331.25
2022-09-14T14:26:27.440Z,99314.06
2022-09-14T14:31:29.111Z,99307.25
2022-09-14T14:36:30.765Z,99322.59
2022-09-14T14:41:32.340Z,99297.50
2022-09-14T14:46:34.187Z,99270.16
2022-09-14T14:51:35.723Z,99233.84
2022-09-14T14:56:38.485Z,99200.59
2022-09-14T15:01:40.017Z,99192.50
2022-09-14T15:06:41.750Z,99194.41
2022-09-14T15:11:43.496Z,99183.28
2022-09-14T15:16:46.238Z,99190.03
2022-09-14T15:21:47.821Z,99187.63
2022-09-14T15:26:49.369Z,99185.13
2022-09-14T15:31:50.973Z,99176.72
2022-09-14T15:36:54.033Z,99165.28
2022-09-14T15:41:56.290Z,99156.81
2022-09-14T15:46:57.896Z,99126.03
2022-09-14T15:51:59.416Z,99131.91
2022-09-14T15:57:01.333Z,99135.34
2022-09-14T16:02:03.938Z,99130.78
2022-09-14T16:07:09.781Z,99133.59
2022-09-14T16:12:12.704Z,99143.38
2022-09-14T16:17:14.327Z,99151.78
2022-09-14T16:22:15.929Z,99161.78
2022-09-14T16:27:17.503Z,99162.09
2022-09-14T16:32:19.054Z,99183.69
2022-09-14T16:37:20.819Z,99185.28
2022-09-14T16:42:22.352Z,99185.13
2022-09-14T16:47:25.668Z,99198.66
2022-09-14T16:52:28.577Z,99190.31
2022-09-14T16:57:30.088Z,99186.06
2022-09-14T17:02:34.053Z,99190.25
2022-09-14T17:07:35.632Z,99196.94
2022-09-14T17:12:37.172Z,99189.38
2022-09-14T17:17:38.805Z,99187.53
2022-09-14T17:22:40.314Z,99196.66
2022-09-14T17:27:41.873Z,99206.59
2022-09-14T17:32:43.405Z,99200.53
2022-09-14T17:37:44.975Z,99183.19
2022-09-14T17:42:46.504Z,99188.53
2022-09-14T17:47:48.033Z,99187.34
2022-09-14T17:52:52.581Z,99181.69
2022-09-14T17:57:54.150Z,99185.31
2022-09-14T18:02:55.745Z,99178.56
2022-09-14T18:07:57.744Z,99179.56
2022-09-14T18:12:59.312Z,99179.09
2022-09-14T18:18:00.906Z,99170.47
2022-09-14T18:23:02.411Z,99179.16
2022-09-14T18:28:03.920Z,99207.41
2022-09-14T18:33:05.551Z,99213.69
2022-09-14T18:38:07.690Z,99216.00
2022-09-14T18:43:09.215Z,99218.56
2022-09-14T18:48:10.853Z,99207.88
2022-09-14T18:53:13.128Z,99210.97
2022-09-14T18:58:14.651Z,99222.25
2022-09-14T19:03:16.163Z,99213.50
2022-09-14T19:08:17.683Z,99199.84
2022-09-14T19:13:19.209Z,99190.59
2022-09-14T19:18:20.751Z,99195.75
2022-09-14T19:23:22.256Z,99185.25
2022-09-14T19:28:23.786Z,99196.63
2022-09-14T19:33:25.695Z,99195.09
2022-09-14T19:38:28.765Z,99193.25
2022-09-14T19:43:32.240Z,99195.50
2022-09-14T19:48:34.735Z,99207.38
2022-09-14T19:53:37.177Z,99207.91
2022-09-14T19:58:40.967Z,99226.47
2022-09-14T20:03:43.705Z,99244.81
2022-09-14T20:08:46.831Z,99246.66
2022-09-14T20:13:48.533Z,99260.13
2022-09-14T20:18:51.619Z,99261.69
2022-09-14T20:24:18.265Z,99249.69
2022-09-14T20:29:22.709Z,99246.63
2022-09-14T20:34:24.771Z,99242.72
2022-09-14T20:39:27.310Z,99258.44
2022-09-14T20:44:28.850Z,99264.69
2022-09-14T20:49:30.377Z,99257.53
2022-09-14T20:54:31.983Z,99248.78
2022-09-14T20:59:33.711Z,99276.78
2022-09-14T21:04:35.678Z,99286.69
2022-09-14T21:09:37.197Z,99281.53
2022-09-14T21:14:38.800Z,99289.47
2022-09-14T21:19:40.396Z,99314.31
2022-09-14T21:24:41.915Z,99302.13
2022-09-14T21:29:43.416Z,99304.59
2022-09-14T21:34:45.302Z,99303.75
2022-09-14T21:39:47.676Z,99305.41
2022-09-14T21:44:49.278Z,99293.69
2022-09-14T21:49:50.809Z,99289.19
2022-09-14T21:54:52.355Z,99288.16
2022-09-14T21:59:53.881Z,99281.28
2022-09-14T22:04:55.397Z,99282.41
2022-09-14T22:09:56.943Z,99276.88
2022-09-14T22:14:58.456Z,99289.59
2022-09-14T22:20:00.683Z,99314.84
2022-09-14T22:25:02.241Z,99326.13
2022-09-14T22:30:04.005Z,99333.00
2022-09-14T22:35:05.805Z,99343.59
2022-09-14T22:40:07.807Z,99356.63
2022-09-14T22:45:09.852Z,99366.69
2022-09-14T22:50:11.413Z,99359.13
2022-09-14T22:55:13.845Z,99359.69
2022-09-14T23:00:15.652Z,99354.38
2022-09-14T23:05:17.440Z,99358.13
2022-09-14T23:10:19.052Z,99339.44
2022-09-14T23:15:20.692Z,99349.00
2022-09-14T23:20:22.331Z,99359.84
2022-09-14T23:25:26.422Z,99352.06
2022-09-14T23:30:28.151Z,99345.41
2022-09-14T23:35:30.079Z,99358.72
2022-09-14T23:40:31.645Z,99340.75
2022-09-14T23:45:33.226Z,99347.19
2022-09-14T23:50:35.025Z,99329.53
2022-09-14T23:55:36.774Z,99330.09
